sensor_id;sensor_type;location;lat;lon;timestamp;P1;durP1;ratioP1;P2;durP2;ratioP2
52434;SDS011;38354;52.892;6.148;2023-12-20T04:02:41;23.90;;;4.55;;
52434;SDS011;38354;52.892;6.148;2023-12-20T04:05:08;24.95;;;4.28;;
52434;SDS011;38354;52.892;6.148;2023-12-20T04:07:37;33.45;;;3.80;;
52434;SDS011;38354;52.892;6.148;2023-12-20T04:10:03;25.40;;;4.65;;
52434;SDS011;38354;52.892;6.148;2023-12-20T04:12:30;30.48;;;3.95;;
52434;SDS011;38354;52.892;6.148;2023-12-20T04:14:56;20.70;;;4.13;;
52434;SDS011;38354;52.892;6.148;2023-12-20T04:17:22;25.90;;;3.72;;
52434;SDS011;38354;52.892;6.148;2023-12-20T04:19:48;20.48;;;4.22;;
52434;SDS011;38354;52.892;6.148;2023-12-20T04:22:14;21.02;;;3.58;;
52434;SDS011;38354;52.892;6.148;2023-12-20T04:24:40;35.22;;;4.18;;
52434;SDS011;38354;52.892;6.148;2023-12-20T04:27:07;23.95;;;4.20;;
52434;SDS011;38354;52.892;6.148;2023-12-20T04:29:33;23.45;;;3.30;;
52434;SDS011;38354;52.892;6.148;2023-12-20T04:31:59;23.23;;;4.13;;
52434;SDS011;38354;52.892;6.148;2023-12-20T04:34:28;27.45;;;3.45;;
52434;SDS011;38354;52.892;6.148;2023-12-20T04:36:53;29.90;;;4.18;;
52434;SDS011;38354;52.892;6.148;2023-12-20T04:39:19;22.98;;;3.70;;
52434;SDS011;38354;52.892;6.148;2023-12-20T04:41:45;16.00;;;3.17;;
52434;SDS011;38354;52.892;6.148;2023-12-20T04:44:12;36.42;;;5.55;;
52434;SDS011;38354;52.892;6.148;2023-12-20T04:46:38;19.42;;;3.53;;
52434;SDS011;38354;52.892;6.148;2023-12-20T04:49:04;22.63;;;3.60;;
52434;SDS011;38354;52.892;6.148;2023-12-20T04:51:29;21.33;;;3.58;;
52434;SDS011;38354;52.892;6.148;2023-12-20T04:53:57;23.27;;;3.67;;
52434;SDS011;38354;52.892;6.148;2023-12-20T04:56:23;15.00;;;2.92;;
52434;SDS011;38354;52.892;6.148;2023-12-20T04:58:49;25.25;;;3.85;;
52434;SDS011;38354;52.892;6.148;2023-12-20T05:01:14;20.02;;;3.65;;
52434;SDS011;38354;52.892;6.148;2023-12-20T05:03:40;28.45;;;4.22;;
52434;SDS011;38354;52.892;6.148;2023-12-20T05:06:06;28.98;;;5.13;;
52434;SDS011;38354;52.892;6.148;2023-12-20T05:08:31;26.08;;;4.00;;
52434;SDS011;38354;52.892;6.148;2023-12-20T05:10:57;26.67;;;3.53;;
52434;SDS011;38354;52.892;6.148;2023-12-20T05:13:22;27.45;;;2.80;;
52434;SDS011;38354;52.892;6.148;2023-12-20T05:15:48;20.70;;;4.05;;
52434;SDS011;38354;52.892;6.148;2023-12-20T05:18:14;26.92;;;3.63;;
52434;SDS011;38354;52.892;6.148;2023-12-20T05:20:39;25.13;;;4.07;;
52434;SDS011;38354;52.892;6.148;2023-12-20T05:23:05;27.73;;;5.18;;
52434;SDS011;38354;52.892;6.148;2023-12-20T05:25:31;17.35;;;3.40;;
52434;SDS011;38354;52.892;6.148;2023-12-20T05:27:57;24.98;;;3.42;;
52434;SDS011;38354;52.892;6.148;2023-12-20T05:30:22;29.02;;;3.65;;
52434;SDS011;38354;52.892;6.148;2023-12-20T05:32:48;24.92;;;4.00;;
52434;SDS011;38354;52.892;6.148;2023-12-20T05:35:14;27.98;;;4.05;;
52434;SDS011;38354;52.892;6.148;2023-12-20T05:37:40;15.90;;;3.63;;
52434;SDS011;38354;52.892;6.148;2023-12-20T05:40:06;20.70;;;3.65;;
52434;SDS011;38354;52.892;6.148;2023-12-20T05:42:35;20.85;;;4.00;;
52434;SDS011;38354;52.892;6.148;2023-12-20T05:45:02;20.27;;;3.97;;
52434;SDS011;38354;52.892;6.148;2023-12-20T05:47:27;19.75;;;4.15;;
52434;SDS011;38354;52.892;6.148;2023-12-20T05:49:53;17.85;;;2.75;;
52434;SDS011;38354;52.892;6.148;2023-12-20T05:52:18;23.02;;;3.08;;
52434;SDS011;38354;52.892;6.148;2023-12-20T05:54:44;22.67;;;3.65;;
52434;SDS011;38354;52.892;6.148;2023-12-20T05:57:10;26.23;;;3.67;;
52434;SDS011;38354;52.892;6.148;2023-12-20T05:59:36;23.67;;;3.97;;
52434;SDS011;38354;52.892;6.148;2023-12-20T06:02:02;24.77;;;3.47;;
52434;SDS011;38354;52.892;6.148;2023-12-20T06:04:29;18.83;;;3.05;;
52434;SDS011;38354;52.892;6.148;2023-12-20T06:06:55;20.23;;;3.78;;
52434;SDS011;38354;52.892;6.148;2023-12-20T06:09:21;25.17;;;3.83;;
52434;SDS011;38354;52.892;6.148;2023-12-20T06:11:46;20.52;;;3.47;;
52434;SDS011;38354;52.892;6.148;2023-12-20T06:14:12;20.35;;;3.22;;
52434;SDS011;38354;52.892;6.148;2023-12-20T06:16:38;22.95;;;2.75;;
52434;SDS011;38354;52.892;6.148;2023-12-20T06:19:03;25.48;;;4.22;;
52434;SDS011;38354;52.892;6.148;2023-12-20T06:21:29;15.23;;;2.60;;
52434;SDS011;38354;52.892;6.148;2023-12-20T06:23:54;29.20;;;4.10;;
52434;SDS011;38354;52.892;6.148;2023-12-20T06:26:20;21.17;;;3.67;;
52434;SDS011;38354;52.892;6.148;2023-12-20T06:28:46;24.42;;;4.68;;
52434;SDS011;38354;52.892;6.148;2023-12-20T06:31:12;19.23;;;3.60;;
52434;SDS011;38354;52.892;6.148;2023-12-20T06:33:38;16.50;;;2.83;;
52434;SDS011;38354;52.892;6.148;2023-12-20T06:36:06;21.80;;;2.90;;
52434;SDS011;38354;52.892;6.148;2023-12-20T06:38:32;22.95;;;3.03;;
52434;SDS011;38354;52.892;6.148;2023-12-20T06:40:57;17.63;;;3.45;;
52434;SDS011;38354;52.892;6.148;2023-12-20T06:43:23;23.95;;;3.35;;
52434;SDS011;38354;52.892;6.148;2023-12-20T06:45:49;30.30;;;4.40;;
52434;SDS011;38354;52.892;6.148;2023-12-20T06:48:16;26.75;;;3.88;;
52434;SDS011;38354;52.892;6.148;2023-12-20T06:50:41;21.77;;;3.55;;
52434;SDS011;38354;52.892;6.148;2023-12-20T06:53:07;22.58;;;4.20;;
52434;SDS011;38354;52.892;6.148;2023-12-20T06:55:33;17.33;;;3.75;;
52434;SDS011;38354;52.892;6.148;2023-12-20T06:58:02;17.83;;;3.47;;
52434;SDS011;38354;52.892;6.148;2023-12-20T07:00:29;23.85;;;3.88;;
52434;SDS011;38354;52.892;6.148;2023-12-20T07:02:55;32.22;;;4.45;;
52434;SDS011;38354;52.892;6.148;2023-12-20T07:05:21;26.95;;;4.35;;
52434;SDS011;38354;52.892;6.148;2023-12-20T07:07:46;21.35;;;4.03;;
52434;SDS011;38354;52.892;6.148;2023-12-20T07:10:13;20.10;;;4.13;;
52434;SDS011;38354;52.892;6.148;2023-12-20T07:12:39;26.00;;;4.05;;
52434;SDS011;38354;52.892;6.148;2023-12-20T07:15:04;24.08;;;4.10;;
52434;SDS011;38354;52.892;6.148;2023-12-20T07:17:33;24.55;;;3.70;;
52434;SDS011;38354;52.892;6.148;2023-12-20T07:19:59;22.05;;;4.00;;
52434;SDS011;38354;52.892;6.148;2023-12-20T07:22:32;17.83;;;3.60;;
52434;SDS011;38354;52.892;6.148;2023-12-20T07:24:58;27.42;;;4.18;;
52434;SDS011;38354;52.892;6.148;2023-12-20T07:27:24;22.95;;;3.45;;
52434;SDS011;38354;52.892;6.148;2023-12-20T07:29:50;24.80;;;4.65;;
52434;SDS011;38354;52.892;6.148;2023-12-20T07:32:16;18.98;;;3.60;;
52434;SDS011;38354;52.892;6.148;2023-12-20T07:34:42;29.33;;;4.40;;
52434;SDS011;38354;52.892;6.148;2023-12-20T07:37:08;18.42;;;3.38;;
52434;SDS011;38354;52.892;6.148;2023-12-20T07:39:35;24.30;;;3.80;;
52434;SDS011;38354;52.892;6.148;2023-12-20T07:42:01;19.45;;;3.50;;
52434;SDS011;38354;52.892;6.148;2023-12-20T07:44:26;26.17;;;4.90;;
52434;SDS011;38354;52.892;6.148;2023-12-20T07:46:52;27.85;;;5.03;;
52434;SDS011;38354;52.892;6.148;2023-12-20T07:49:18;25.70;;;3.95;;
52434;SDS011;38354;52.892;6.148;2023-12-20T07:51:44;15.35;;;2.47;;
52434;SDS011;38354;52.892;6.148;2023-12-20T07:54:10;20.08;;;3.63;;
52434;SDS011;38354;52.892;6.148;2023-12-20T07:56:36;24.20;;;4.68;;
52434;SDS011;38354;52.892;6.148;2023-12-20T07:59:02;23.02;;;4.13;;
52434;SDS011;38354;52.892;6.148;2023-12-20T08:01:27;19.13;;;4.03;;
52434;SDS011;38354;52.892;6.148;2023-12-20T08:03:54;28.85;;;4.82;;
52434;SDS011;38354;52.892;6.148;2023-12-20T08:06:19;27.90;;;4.15;;
52434;SDS011;38354;52.892;6.148;2023-12-20T08:08:46;30.98;;;4.78;;
52434;SDS011;38354;52.892;6.148;2023-12-20T08:11:11;22.25;;;3.30;;
52434;SDS011;38354;52.892;6.148;2023-12-20T08:13:37;32.85;;;4.00;;
52434;SDS011;38354;52.892;6.148;2023-12-20T08:16:03;25.13;;;5.15;;
52434;SDS011;38354;52.892;6.148;2023-12-20T08:18:29;27.40;;;4.50;;
52434;SDS011;38354;52.892;6.148;2023-12-20T08:20:55;25.55;;;4.10;;
52434;SDS011;38354;52.892;6.148;2023-12-20T08:23:20;33.95;;;4.20;;
52434;SDS011;38354;52.892;6.148;2023-12-20T08:25:46;22.55;;;4.70;;
52434;SDS011;38354;52.892;6.148;2023-12-20T08:28:13;18.73;;;3.25;;
52434;SDS011;38354;52.892;6.148;2023-12-20T08:30:38;22.33;;;3.75;;
52434;SDS011;38354;52.892;6.148;2023-12-20T08:33:04;18.70;;;3.28;;
52434;SDS011;38354;52.892;6.148;2023-12-20T08:35:33;18.05;;;3.45;;
52434;SDS011;38354;52.892;6.148;2023-12-20T08:37:58;13.68;;;3.10;;
52434;SDS011;38354;52.892;6.148;2023-12-20T08:40:24;22.17;;;3.20;;
52434;SDS011;38354;52.892;6.148;2023-12-20T08:42:49;22.67;;;3.55;;
52434;SDS011;38354;52.892;6.148;2023-12-20T08:45:15;32.20;;;5.47;;
52434;SDS011;38354;52.892;6.148;2023-12-20T08:47:41;24.33;;;4.65;;
52434;SDS011;38354;52.892;6.148;2023-12-20T08:50:07;18.45;;;3.22;;
52434;SDS011;38354;52.892;6.148;2023-12-20T08:52:33;21.73;;;3.70;;
52434;SDS011;38354;52.892;6.148;2023-12-20T08:54:58;29.95;;;4.93;;
52434;SDS011;38354;52.892;6.148;2023-12-20T08:57:24;19.90;;;4.05;;
52434;SDS011;38354;52.892;6.148;2023-12-20T08:59:50;27.77;;;4.05;;
52434;SDS011;38354;52.892;6.148;2023-12-20T09:02:16;19.08;;;3.40;;
52434;SDS011;38354;52.892;6.148;2023-12-20T09:04:42;27.67;;;3.70;;
52434;SDS011;38354;52.892;6.148;2023-12-20T09:07:29;26.58;;;4.38;;
52434;SDS011;38354;52.892;6.148;2023-12-20T09:09:56;16.05;;;3.40;;
52434;SDS011;38354;52.892;6.148;2023-12-20T09:12:22;21.23;;;3.90;;
52434;SDS011;38354;52.892;6.148;2023-12-20T09:14:49;17.63;;;3.70;;
52434;SDS011;38354;52.892;6.148;2023-12-20T09:17:15;15.95;;;2.90;;
52434;SDS011;38354;52.892;6.148;2023-12-20T09:19:42;18.25;;;3.83;;
52434;SDS011;38354;52.892;6.148;2023-12-20T09:22:11;21.98;;;5.03;;
52434;SDS011;38354;52.892;6.148;2023-12-20T09:24:37;25.15;;;5.13;;
52434;SDS011;38354;52.892;6.148;2023-12-20T09:27:04;17.02;;;3.25;;
52434;SDS011;38354;52.892;6.148;2023-12-20T09:29:30;25.40;;;4.47;;
52434;SDS011;38354;52.892;6.148;2023-12-20T09:31:56;21.83;;;3.63;;
52434;SDS011;38354;52.892;6.148;2023-12-20T09:34:22;21.90;;;3.75;;
52434;SDS011;38354;52.892;6.148;2023-12-20T09:36:49;28.05;;;3.42;;
52434;SDS011;38354;52.892;6.148;2023-12-20T09:39:15;12.73;;;2.80;;
52434;SDS011;38354;52.892;6.148;2023-12-20T09:41:57;7.90;;;2.08;;
52434;SDS011;38354;52.892;6.148;2023-12-20T09:44:26;10.77;;;1.63;;
52434;SDS011;38354;52.892;6.148;2023-12-20T09:46:52;7.90;;;1.92;;
52434;SDS011;38354;52.892;6.148;2023-12-20T09:49:21;12.85;;;1.60;;
52434;SDS011;38354;52.892;6.148;2023-12-20T09:51:47;10.57;;;1.38;;
52434;SDS011;38354;52.892;6.148;2023-12-20T09:54:15;7.38;;;1.20;;
52434;SDS011;38354;52.892;6.148;2023-12-20T09:56:42;11.60;;;1.63;;
52434;SDS011;38354;52.892;6.148;2023-12-20T09:59:08;15.68;;;1.77;;
52434;SDS011;38354;52.892;6.148;2023-12-20T10:01:34;11.98;;;1.20;;
52434;SDS011;38354;52.892;6.148;2023-12-20T10:04:01;8.40;;;1.30;;
52434;SDS011;38354;52.892;6.148;2023-12-20T10:06:33;9.50;;;1.27;;
52434;SDS011;38354;52.892;6.148;2023-12-20T10:09:09;9.82;;;1.83;;
52434;SDS011;38354;52.892;6.148;2023-12-20T10:11:36;12.52;;;1.40;;
52434;SDS011;38354;52.892;6.148;2023-12-20T10:14:03;9.90;;;1.10;;
52434;SDS011;38354;52.892;6.148;2023-12-20T10:16:30;8.50;;;1.65;;
52434;SDS011;38354;52.892;6.148;2023-12-20T10:18:56;10.07;;;1.73;;
52434;SDS011;38354;52.892;6.148;2023-12-20T10:21:22;8.52;;;1.20;;
52434;SDS011;38354;52.892;6.148;2023-12-20T10:23:49;11.68;;;1.75;;
52434;SDS011;38354;52.892;6.148;2023-12-20T10:26:25;13.15;;;1.30;;
52434;SDS011;38354;52.892;6.148;2023-12-20T10:28:55;5.90;;;1.30;;
52434;SDS011;38354;52.892;6.148;2023-12-20T10:33:55;13.18;;;2.13;;
52434;SDS011;38354;52.892;6.148;2023-12-20T10:36:25;5.38;;;1.38;;
52434;SDS011;38354;52.892;6.148;2023-12-20T10:38:52;13.00;;;1.90;;
52434;SDS011;38354;52.892;6.148;2023-12-20T10:43:53;11.43;;;1.50;;
52434;SDS011;38354;52.892;6.148;2023-12-20T10:46:21;14.90;;;1.80;;
52434;SDS011;38354;52.892;6.148;2023-12-20T10:48:47;12.45;;;1.90;;
52434;SDS011;38354;52.892;6.148;2023-12-20T10:51:17;8.30;;;1.30;;
52434;SDS011;38354;52.892;6.148;2023-12-20T10:53:43;15.85;;;2.28;;
52434;SDS011;38354;52.892;6.148;2023-12-20T10:56:12;6.40;;;1.40;;
52434;SDS011;38354;52.892;6.148;2023-12-20T10:58:42;5.63;;;1.50;;
52434;SDS011;38354;52.892;6.148;2023-12-20T11:01:10;13.40;;;1.40;;
52434;SDS011;38354;52.892;6.148;2023-12-20T11:03:39;8.40;;;2.03;;
52434;SDS011;38354;52.892;6.148;2023-12-20T11:06:12;6.35;;;1.50;;
52434;SDS011;38354;52.892;6.148;2023-12-20T11:11:56;8.38;;;1.25;;
52434;SDS011;38354;52.892;6.148;2023-12-20T11:17:11;9.82;;;1.30;;
52434;SDS011;38354;52.892;6.148;2023-12-20T11:22:27;6.60;;;1.45;;
52434;SDS011;38354;52.892;6.148;2023-12-20T11:25:09;17.85;;;2.88;;
52434;SDS011;38354;52.892;6.148;2023-12-20T11:27:36;16.15;;;2.58;;
52434;SDS011;38354;52.892;6.148;2023-12-20T11:30:07;7.63;;;2.20;;
52434;SDS011;38354;52.892;6.148;2023-12-20T11:32:35;12.35;;;2.80;;
52434;SDS011;38354;52.892;6.148;2023-12-20T11:37:37;12.13;;;1.80;;
52434;SDS011;38354;52.892;6.148;2023-12-20T11:40:08;11.48;;;1.75;;
52434;SDS011;38354;52.892;6.148;2023-12-20T11:42:40;12.05;;;1.65;;
52434;SDS011;38354;52.892;6.148;2023-12-20T11:45:10;13.10;;;2.17;;
52434;SDS011;38354;52.892;6.148;2023-12-20T11:47:40;12.65;;;1.95;;
52434;SDS011;38354;52.892;6.148;2023-12-20T11:50:11;15.60;;;2.65;;
52434;SDS011;38354;52.892;6.148;2023-12-20T11:52:36;7.03;;;1.70;;
52434;SDS011;38354;52.892;6.148;2023-12-20T11:55:02;12.88;;;2.20;;
52434;SDS011;38354;52.892;6.148;2023-12-20T11:57:29;8.90;;;1.40;;
52434;SDS011;38354;52.892;6.148;2023-12-20T11:59:55;9.85;;;1.73;;
52434;SDS011;38354;52.892;6.148;2023-12-20T12:02:21;11.45;;;2.08;;
52434;SDS011;38354;52.892;6.148;2023-12-20T12:04:49;12.77;;;2.08;;
52434;SDS011;38354;52.892;6.148;2023-12-20T12:07:15;13.18;;;2.17;;
52434;SDS011;38354;52.892;6.148;2023-12-20T12:09:42;21.73;;;2.20;;
52434;SDS011;38354;52.892;6.148;2023-12-20T12:12:08;11.57;;;2.72;;
52434;SDS011;38354;52.892;6.148;2023-12-20T12:14:34;8.63;;;1.85;;
52434;SDS011;38354;52.892;6.148;2023-12-20T12:17:02;8.65;;;1.50;;
52434;SDS011;38354;52.892;6.148;2023-12-20T12:19:29;11.48;;;1.88;;
52434;SDS011;38354;52.892;6.148;2023-12-20T12:24:34;15.98;;;1.83;;
52434;SDS011;38354;52.892;6.148;2023-12-20T12:27:00;8.70;;;1.30;;
52434;SDS011;38354;52.892;6.148;2023-12-20T12:29:25;9.55;;;1.70;;
52434;SDS011;38354;52.892;6.148;2023-12-20T12:31:52;13.68;;;1.55;;
52434;SDS011;38354;52.892;6.148;2023-12-20T12:34:18;11.07;;;1.60;;
52434;SDS011;38354;52.892;6.148;2023-12-20T12:36:43;15.82;;;2.47;;
52434;SDS011;38354;52.892;6.148;2023-12-20T12:39:14;14.63;;;2.42;;
52434;SDS011;38354;52.892;6.148;2023-12-20T12:41:43;16.83;;;2.35;;
52434;SDS011;38354;52.892;6.148;2023-12-20T12:44:09;12.32;;;2.53;;
52434;SDS011;38354;52.892;6.148;2023-12-20T12:46:34;8.05;;;1.73;;
52434;SDS011;38354;52.892;6.148;2023-12-20T12:49:00;14.00;;;1.67;;
52434;SDS011;38354;52.892;6.148;2023-12-20T12:51:26;10.02;;;2.10;;
52434;SDS011;38354;52.892;6.148;2023-12-20T12:53:52;11.13;;;1.85;;
52434;SDS011;38354;52.892;6.148;2023-12-20T12:56:18;15.60;;;3.75;;
52434;SDS011;38354;52.892;6.148;2023-12-20T12:58:44;11.45;;;2.53;;
52434;SDS011;38354;52.892;6.148;2023-12-20T13:01:10;13.95;;;2.08;;
52434;SDS011;38354;52.892;6.148;2023-12-20T13:03:36;15.57;;;4.20;;
52434;SDS011;38354;52.892;6.148;2023-12-20T13:06:02;15.13;;;3.13;;
52434;SDS011;38354;52.892;6.148;2023-12-20T13:08:29;10.27;;;2.65;;
52434;SDS011;38354;52.892;6.148;2023-12-20T13:10:55;7.45;;;1.50;;
52434;SDS011;38354;52.892;6.148;2023-12-20T13:13:23;11.93;;;2.22;;
52434;SDS011;38354;52.892;6.148;2023-12-20T13:15:48;10.80;;;1.95;;
52434;SDS011;38354;52.892;6.148;2023-12-20T13:18:17;10.63;;;1.75;;
52434;SDS011;38354;52.892;6.148;2023-12-20T13:20:44;14.20;;;1.55;;
52434;SDS011;38354;52.892;6.148;2023-12-20T13:23:09;9.82;;;1.77;;
52434;SDS011;38354;52.892;6.148;2023-12-20T13:25:35;12.02;;;1.67;;
52434;SDS011;38354;52.892;6.148;2023-12-20T13:28:01;11.05;;;2.03;;
52434;SDS011;38354;52.892;6.148;2023-12-20T13:30:28;14.75;;;2.58;;
52434;SDS011;38354;52.892;6.148;2023-12-20T13:32:53;11.93;;;2.13;;
52434;SDS011;38354;52.892;6.148;2023-12-20T13:35:19;13.95;;;1.92;;
52434;SDS011;38354;52.892;6.148;2023-12-20T13:37:45;9.32;;;1.48;;
52434;SDS011;38354;52.892;6.148;2023-12-20T13:40:11;13.82;;;1.80;;
52434;SDS011;38354;52.892;6.148;2023-12-20T13:42:37;8.80;;;1.85;;
52434;SDS011;38354;52.892;6.148;2023-12-20T13:45:04;10.88;;;2.42;;
52434;SDS011;38354;52.892;6.148;2023-12-20T13:47:31;13.57;;;3.33;;
52434;SDS011;38354;52.892;6.148;2023-12-20T13:49:57;9.05;;;3.05;;
52434;SDS011;38354;52.892;6.148;2023-12-20T13:52:23;12.90;;;3.63;;
52434;SDS011;38354;52.892;6.148;2023-12-20T13:54:48;11.13;;;2.42;;
52434;SDS011;38354;52.892;6.148;2023-12-20T13:57:14;10.18;;;3.28;;
52434;SDS011;38354;52.892;6.148;2023-12-20T13:59:40;5.50;;;2.45;;
52434;SDS011;38354;52.892;6.148;2023-12-20T14:02:05;9.38;;;2.40;;
52434;SDS011;38354;52.892;6.148;2023-12-20T14:04:31;8.25;;;1.77;;
52434;SDS011;38354;52.892;6.148;2023-12-20T14:06:57;10.98;;;1.77;;
52434;SDS011;38354;52.892;6.148;2023-12-20T14:09:22;10.45;;;1.70;;
52434;SDS011;38354;52.892;6.148;2023-12-20T14:11:48;9.50;;;1.65;;
52434;SDS011;38354;52.892;6.148;2023-12-20T14:14:14;10.20;;;2.00;;
52434;SDS011;38354;52.892;6.148;2023-12-20T14:16:39;8.10;;;1.40;;
52434;SDS011;38354;52.892;6.148;2023-12-20T14:19:06;7.32;;;1.60;;
52434;SDS011;38354;52.892;6.148;2023-12-20T14:21:34;13.52;;;2.40;;
52434;SDS011;38354;52.892;6.148;2023-12-20T14:24:00;11.40;;;2.97;;
52434;SDS011;38354;52.892;6.148;2023-12-20T14:26:25;6.95;;;1.50;;
52434;SDS011;38354;52.892;6.148;2023-12-20T14:28:53;11.68;;;2.20;;
52434;SDS011;38354;52.892;6.148;2023-12-20T14:31:18;12.60;;;3.17;;
52434;SDS011;38354;52.892;6.148;2023-12-20T14:33:44;12.10;;;2.47;;
52434;SDS011;38354;52.892;6.148;2023-12-20T14:36:11;12.48;;;2.13;;
52434;SDS011;38354;52.892;6.148;2023-12-20T14:38:36;10.18;;;2.20;;
52434;SDS011;38354;52.892;6.148;2023-12-20T14:41:02;13.32;;;1.98;;
52434;SDS011;38354;52.892;6.148;2023-12-20T14:43:31;12.23;;;2.35;;
52434;SDS011;38354;52.892;6.148;2023-12-20T14:45:56;21.00;;;3.78;;
52434;SDS011;38354;52.892;6.148;2023-12-20T14:48:22;10.40;;;2.35;;
52434;SDS011;38354;52.892;6.148;2023-12-20T14:50:47;17.38;;;3.15;;
52434;SDS011;38354;52.892;6.148;2023-12-20T14:53:14;16.55;;;2.30;;
52434;SDS011;38354;52.892;6.148;2023-12-20T14:55:41;22.17;;;3.65;;
52434;SDS011;38354;52.892;6.148;2023-12-20T14:58:07;12.93;;;2.75;;
52434;SDS011;38354;52.892;6.148;2023-12-20T15:00:33;19.15;;;3.08;;
52434;SDS011;38354;52.892;6.148;2023-12-20T15:02:59;19.50;;;3.63;;
52434;SDS011;38354;52.892;6.148;2023-12-20T15:05:24;25.80;;;3.58;;
52434;SDS011;38354;52.892;6.148;2023-12-20T15:07:52;22.73;;;2.95;;
52434;SDS011;38354;52.892;6.148;2023-12-20T15:10:18;18.67;;;3.53;;
52434;SDS011;38354;52.892;6.148;2023-12-20T15:12:44;23.58;;;4.15;;
52434;SDS011;38354;52.892;6.148;2023-12-20T15:15:10;22.13;;;3.15;;
52434;SDS011;38354;52.892;6.148;2023-12-20T15:17:36;25.92;;;4.35;;
52434;SDS011;38354;52.892;6.148;2023-12-20T15:20:02;22.52;;;3.17;;
52434;SDS011;38354;52.892;6.148;2023-12-20T15:22:34;20.67;;;3.67;;
52434;SDS011;38354;52.892;6.148;2023-12-20T15:25:00;24.23;;;4.22;;
52434;SDS011;38354;52.892;6.148;2023-12-20T15:27:26;27.63;;;4.57;;
52434;SDS011;38354;52.892;6.148;2023-12-20T15:29:52;21.77;;;3.58;;
52434;SDS011;38354;52.892;6.148;2023-12-20T15:32:17;16.85;;;4.15;;
52434;SDS011;38354;52.892;6.148;2023-12-20T15:34:47;22.33;;;3.10;;
52434;SDS011;38354;52.892;6.148;2023-12-20T15:37:13;26.17;;;4.47;;
52434;SDS011;38354;52.892;6.148;2023-12-20T15:39:40;19.63;;;3.58;;
52434;SDS011;38354;52.892;6.148;2023-12-20T15:42:06;20.60;;;3.13;;
52434;SDS011;38354;52.892;6.148;2023-12-20T15:44:32;24.63;;;4.47;;
52434;SDS011;38354;52.892;6.148;2023-12-20T15:46:57;16.73;;;3.65;;
52434;SDS011;38354;52.892;6.148;2023-12-20T15:49:23;26.42;;;3.75;;
52434;SDS011;38354;52.892;6.148;2023-12-20T15:51:48;15.88;;;2.90;;
52434;SDS011;38354;52.892;6.148;2023-12-20T15:54:14;18.67;;;3.00;;
52434;SDS011;38354;52.892;6.148;2023-12-20T15:56:40;19.58;;;3.03;;
52434;SDS011;38354;52.892;6.148;2023-12-20T15:59:06;19.15;;;2.83;;
52434;SDS011;38354;52.892;6.148;2023-12-20T16:01:33;18.80;;;3.50;;
52434;SDS011;38354;52.892;6.148;2023-12-20T16:04:00;28.95;;;4.10;;
52434;SDS011;38354;52.892;6.148;2023-12-20T16:06:26;19.85;;;3.58;;
52434;SDS011;38354;52.892;6.148;2023-12-20T16:08:52;22.63;;;3.67;;
52434;SDS011;38354;52.892;6.148;2023-12-20T16:11:18;35.60;;;5.07;;
52434;SDS011;38354;52.892;6.148;2023-12-20T16:13:44;28.23;;;4.53;;
52434;SDS011;38354;52.892;6.148;2023-12-20T16:16:10;21.10;;;5.65;;
52434;SDS011;38354;52.892;6.148;2023-12-20T16:18:40;30.25;;;6.78;;
52434;SDS011;38354;52.892;6.148;2023-12-20T16:21:08;31.73;;;7.55;;
52434;SDS011;38354;52.892;6.148;2023-12-20T16:23:36;21.60;;;4.05;;
52434;SDS011;38354;52.892;6.148;2023-12-20T16:26:02;22.33;;;3.50;;
52434;SDS011;38354;52.892;6.148;2023-12-20T16:28:28;26.33;;;4.70;;
52434;SDS011;38354;52.892;6.148;2023-12-20T16:30:53;17.95;;;3.28;;
52434;SDS011;38354;52.892;6.148;2023-12-20T16:33:20;21.38;;;3.72;;
52434;SDS011;38354;52.892;6.148;2023-12-20T16:35:46;22.48;;;3.50;;
52434;SDS011;38354;52.892;6.148;2023-12-20T16:38:12;18.00;;;2.78;;
52434;SDS011;38354;52.892;6.148;2023-12-20T16:40:37;22.60;;;3.00;;
52434;SDS011;38354;52.892;6.148;2023-12-20T16:43:03;25.13;;;3.63;;
52434;SDS011;38354;52.892;6.148;2023-12-20T16:45:29;23.48;;;3.85;;
52434;SDS011;38354;52.892;6.148;2023-12-20T16:47:55;16.65;;;2.97;;
52434;SDS011;38354;52.892;6.148;2023-12-20T16:50:20;29.30;;;3.58;;
52434;SDS011;38354;52.892;6.148;2023-12-20T16:52:46;25.05;;;4.70;;
52434;SDS011;38354;52.892;6.148;2023-12-20T16:55:16;22.02;;;3.47;;
52434;SDS011;38354;52.892;6.148;2023-12-20T16:57:42;21.88;;;3.63;;
52434;SDS011;38354;52.892;6.148;2023-12-20T17:00:07;25.05;;;3.88;;
52434;SDS011;38354;52.892;6.148;2023-12-20T17:02:33;14.27;;;2.80;;
52434;SDS011;38354;52.892;6.148;2023-12-20T17:04:59;22.40;;;3.00;;
52434;SDS011;38354;52.892;6.148;2023-12-20T17:07:25;15.98;;;2.63;;
52434;SDS011;38354;52.892;6.148;2023-12-20T17:09:52;20.02;;;4.22;;
52434;SDS011;38354;52.892;6.148;2023-12-20T17:12:18;22.50;;;2.95;;
52434;SDS011;38354;52.892;6.148;2023-12-20T17:14:44;15.20;;;3.65;;
52434;SDS011;38354;52.892;6.148;2023-12-20T17:17:10;27.65;;;4.53;;
52434;SDS011;38354;52.892;6.148;2023-12-20T17:19:36;18.77;;;3.53;;
52434;SDS011;38354;52.892;6.148;2023-12-20T17:22:02;20.27;;;3.28;;
52434;SDS011;38354;52.892;6.148;2023-12-20T17:24:28;18.38;;;2.88;;
52434;SDS011;38354;52.892;6.148;2023-12-20T17:26:54;26.42;;;4.63;;
52434;SDS011;38354;52.892;6.148;2023-12-20T17:29:20;17.15;;;3.83;;
52434;SDS011;38354;52.892;6.148;2023-12-20T17:31:45;18.77;;;4.45;;
52434;SDS011;38354;52.892;6.148;2023-12-20T17:34:11;19.75;;;5.63;;
52434;SDS011;38354;52.892;6.148;2023-12-20T17:36:40;13.23;;;3.78;;
52434;SDS011;38354;52.892;6.148;2023-12-20T17:39:06;15.77;;;2.88;;
52434;SDS011;38354;52.892;6.148;2023-12-20T17:41:32;20.40;;;3.85;;
52434;SDS011;38354;52.892;6.148;2023-12-20T17:44:00;17.63;;;3.95;;
52434;SDS011;38354;52.892;6.148;2023-12-20T17:46:26;13.45;;;3.30;;
52434;SDS011;38354;52.892;6.148;2023-12-20T17:48:52;13.73;;;3.15;;
52434;SDS011;38354;52.892;6.148;2023-12-20T17:51:18;11.63;;;3.15;;
52434;SDS011;38354;52.892;6.148;2023-12-20T17:53:43;12.27;;;3.03;;
52434;SDS011;38354;52.892;6.148;2023-12-20T17:56:09;10.00;;;3.00;;
52434;SDS011;38354;52.892;6.148;2023-12-20T17:58:35;8.23;;;2.50;;
52434;SDS011;38354;52.892;6.148;2023-12-20T18:01:01;5.68;;;2.13;;
52434;SDS011;38354;52.892;6.148;2023-12-20T18:03:26;6.15;;;2.05;;
52434;SDS011;38354;52.892;6.148;2023-12-20T18:05:52;10.95;;;3.10;;
52434;SDS011;38354;52.892;6.148;2023-12-20T18:08:18;6.93;;;3.33;;
52434;SDS011;38354;52.892;6.148;2023-12-20T18:10:44;10.43;;;3.38;;
52434;SDS011;38354;52.892;6.148;2023-12-20T18:13:10;5.40;;;2.05;;
52434;SDS011;38354;52.892;6.148;2023-12-20T18:15:36;7.85;;;2.55;;
52434;SDS011;38354;52.892;6.148;2023-12-20T18:18:02;10.60;;;3.92;;
52434;SDS011;38354;52.892;6.148;2023-12-20T18:20:28;10.20;;;3.58;;
52434;SDS011;38354;52.892;6.148;2023-12-20T18:22:54;10.55;;;3.15;;
52434;SDS011;38354;52.892;6.148;2023-12-20T18:25:19;7.53;;;3.08;;
52434;SDS011;38354;52.892;6.148;2023-12-20T18:27:45;9.43;;;3.22;;
52434;SDS011;38354;52.892;6.148;2023-12-20T18:30:11;17.13;;;4.47;;
52434;SDS011;38354;52.892;6.148;2023-12-20T18:32:37;10.93;;;3.67;;
52434;SDS011;38354;52.892;6.148;2023-12-20T18:35:03;10.85;;;3.35;;
52434;SDS011;38354;52.892;6.148;2023-12-20T18:37:29;8.40;;;2.90;;
52434;SDS011;38354;52.892;6.148;2023-12-20T18:39:55;13.00;;;3.30;;
52434;SDS011;38354;52.892;6.148;2023-12-20T18:42:21;10.75;;;2.97;;
52434;SDS011;38354;52.892;6.148;2023-12-20T18:44:47;13.90;;;2.88;;
52434;SDS011;38354;52.892;6.148;2023-12-20T18:47:12;10.45;;;3.10;;
52434;SDS011;38354;52.892;6.148;2023-12-20T18:49:38;9.93;;;3.25;;
52434;SDS011;38354;52.892;6.148;2023-12-20T18:52:04;13.77;;;2.97;;